createdAt,value
2019-02-21T00:00:43.233Z,1011.41
2019-02-21T00:01:43.255Z,1011.45
2019-02-21T00:02:43.209Z,1011.44
2019-02-21T00:03:43.223Z,1011.46
2019-02-21T00:04:43.195Z,1011.48
2019-02-21T00:05:43.173Z,1011.47
2019-02-21T00:06:43.165Z,1011.52
2019-02-21T00:07:43.159Z,1011.52
2019-02-21T00:08:43.192Z,1011.51
2019-02-21T00:09:43.131Z,1011.54
2019-02-21T00:10:43.120Z,1011.50
2019-02-21T00:11:43.109Z,1011.50
2019-02-21T00:12:43.106Z,1011.52
2019-02-21T00:13:43.088Z,1011.52
2019-02-21T00:14:43.107Z,1011.56
2019-02-21T00:15:43.065Z,1011.59
2019-02-21T00:16:43.054Z,1011.60
2019-02-21T00:17:43.051Z,1011.60
2019-02-21T00:18:43.042Z,1011.57
2019-02-21T00:19:43.055Z,1011.56
2019-02-21T00:20:43.020Z,1011.58
2019-02-21T00:21:43.001Z,1011.57
2019-02-21T00:22:42.991Z,1011.58
2019-02-21T00:23:42.987Z,1011.58
2019-02-21T00:24:43.040Z,1011.56
2019-02-21T00:25:42.960Z,1011.56
2019-02-21T00:26:44.313Z,1011.54
2019-02-21T00:27:42.938Z,1011.55
2019-02-21T00:28:42.956Z,1011.55
2019-02-21T00:29:42.920Z,1011.55
2019-02-21T00:30:42.923Z,1011.53
2019-02-21T00:31:42.892Z,1011.54
2019-02-21T00:32:42.887Z,1011.55
2019-02-21T00:33:42.875Z,1011.56
2019-02-21T00:34:42.895Z,1011.55
2019-02-21T00:35:42.851Z,1011.55
2019-02-21T00:36:42.843Z,1011.55
2019-02-21T00:37:42.846Z,1011.54
2019-02-21T00:38:42.819Z,1011.53
2019-02-21T00:39:42.808Z,1011.55
2019-02-21T00:40:42.796Z,1011.57
2019-02-21T00:41:42.785Z,1011.55
2019-02-21T00:42:42.803Z,1011.58
2019-02-21T00:43:42.766Z,1011.56
2019-02-21T00:44:42.753Z,1011.58
2019-02-21T00:45:42.745Z,1011.60
2019-02-21T00:46:42.776Z,1011.62
2019-02-21T00:47:42.757Z,1011.63
2019-02-21T00:48:42.726Z,1011.68
2019-02-21T00:49:42.701Z,1011.64
2019-02-21T00:50:42.688Z,1011.63
2019-02-21T00:51:42.700Z,1011.56
2019-02-21T00:52:42.668Z,1011.68
2019-02-21T00:53:42.680Z,1011.60
2019-02-21T00:54:42.712Z,1011.61
2019-02-21T00:55:42.683Z,1011.59
2019-02-21T00:56:42.626Z,1011.58
2019-02-21T00:57:42.619Z,1011.56
2019-02-21T00:58:42.601Z,1011.58
2019-02-21T00:59:42.598Z,1011.54
2019-02-21T01:00:46.475Z,1011.57
2019-02-21T01:01:42.602Z,1011.54
2019-02-21T01:02:42.569Z,1011.58
2019-02-21T01:03:42.575Z,1011.60
2019-02-21T01:04:42.539Z,1011.59
2019-02-21T01:05:42.528Z,1011.56
2019-02-21T01:06:42.517Z,1011.65
2019-02-21T01:07:42.525Z,1011.64
2019-02-21T01:08:42.492Z,1011.65
2019-02-21T01:09:42.481Z,1011.68
2019-02-21T01:10:42.471Z,1011.63
2019-02-21T01:11:42.462Z,1011.67
2019-02-21T01:12:42.455Z,1011.65
2019-02-21T01:13:42.473Z,1011.66
2019-02-21T01:14:42.426Z,1011.67
2019-02-21T01:15:42.461Z,1011.68
2019-02-21T01:16:42.405Z,1011.74
2019-02-21T01:17:42.394Z,1011.77
2019-02-21T01:18:42.386Z,1011.70
2019-02-21T01:19:42.388Z,1011.74
2019-02-21T01:20:42.395Z,1011.70
2019-02-21T01:21:42.351Z,1011.72
2019-02-21T01:22:42.341Z,1011.68
2019-02-21T01:23:42.332Z,1011.69
2019-02-21T01:24:42.350Z,1011.65
2019-02-21T01:25:42.310Z,1011.64
2019-02-21T01:26:42.297Z,1011.68
2019-02-21T01:27:42.310Z,1011.68
2019-02-21T01:28:42.279Z,1011.65
2019-02-21T01:29:42.267Z,1011.71
2019-02-21T01:30:42.260Z,1011.73
2019-02-21T01:31:42.259Z,1011.72
2019-02-21T01:32:42.233Z,1011.78
2019-02-21T01:33:42.223Z,1011.79
2019-02-21T01:34:42.209Z,1011.74
2019-02-21T01:35:42.235Z,1011.80
2019-02-21T01:36:42.372Z,1011.77
2019-02-21T01:37:42.209Z,1011.76
2019-02-21T01:38:42.166Z,1011.75
2019-02-21T01:39:42.153Z,1011.74
2019-02-21T01:40:42.144Z,1011.75
2019-02-21T01:41:42.132Z,1011.66
2019-02-21T01:42:42.153Z,1011.68
2019-02-21T01:43:42.189Z,1011.68
2019-02-21T01:44:42.104Z,1011.70
2019-02-21T01:45:42.088Z,1011.66
2019-02-21T01:46:42.081Z,1011.66
2019-02-21T01:47:42.099Z,1011.66
2019-02-21T01:48:42.057Z,1011.66
2019-02-21T01:49:42.049Z,1011.65
2019-02-21T01:50:42.034Z,1011.64
2019-02-21T01:51:42.027Z,1011.65
2019-02-21T01:52:42.044Z,1011.62
2019-02-21T01:53:42.006Z,1011.67
2019-02-21T01:54:42.041Z,1011.68
2019-02-21T01:55:41.981Z,1011.67
2019-02-21T01:56:41.967Z,1011.68
2019-02-21T01:57:41.959Z,1011.68
2019-02-21T01:58:41.946Z,1011.72
2019-02-21T01:59:41.939Z,1011.73
2019-02-21T02:00:41.975Z,1011.74
2019-02-21T02:01:41.916Z,1011.75
2019-02-21T02:02:41.906Z,1011.76
2019-02-21T02:03:41.892Z,1011.77
2019-02-21T02:04:41.879Z,1011.77
2019-02-21T02:05:41.869Z,1011.77
2019-02-21T02:06:41.892Z,1011.76
2019-02-21T02:07:41.848Z,1011.74
2019-02-21T02:08:41.837Z,1011.80
2019-02-21T02:09:41.834Z,1011.81
2019-02-21T02:10:41.870Z,1011.84
2019-02-21T02:11:41.813Z,1011.83
2019-02-21T02:12:41.796Z,1011.79
2019-02-21T02:13:41.783Z,1011.79
2019-02-21T02:14:41.774Z,1011.80
2019-02-21T02:15:41.759Z,1011.83
2019-02-21T02:16:41.783Z,1011.80
2019-02-21T02:17:41.738Z,1011.82
2019-02-21T02:18:41.759Z,1011.80
2019-02-21T02:19:41.720Z,1011.85
2019-02-21T02:20:41.722Z,1011.81
2019-02-21T02:21:41.700Z,1011.84
2019-02-21T02:22:41.685Z,1011.81
2019-02-21T02:23:41.713Z,1011.84
2019-02-21T02:24:41.687Z,1011.83
2019-02-21T02:25:41.654Z,1011.81
2019-02-21T02:26:41.651Z,1011.82
2019-02-21T02:27:41.632Z,1011.81
2019-02-21T02:28:41.652Z,1011.75
2019-02-21T02:29:41.609Z,1011.78
2019-02-21T02:30:41.608Z,1011.79
2019-02-21T02:31:41.622Z,1011.77
2019-02-21T02:32:41.581Z,1011.80
2019-02-21T02:33:41.566Z,1011.78
2019-02-21T02:34:41.600Z,1011.78
2019-02-21T02:35:41.575Z,1011.79
2019-02-21T02:36:41.541Z,1011.76
2019-02-21T02:37:41.557Z,1011.78
2019-02-21T02:38:41.515Z,1011.83
2019-02-21T02:39:41.507Z,1011.79
2019-02-21T02:40:41.528Z,1011.84
2019-02-21T02:41:41.480Z,1011.82
2019-02-21T02:42:41.472Z,1011.82
2019-02-21T02:43:41.542Z,1011.85
2019-02-21T02:44:41.449Z,1011.75
2019-02-21T02:45:41.475Z,1011.81
2019-02-21T02:46:41.455Z,1011.75
2019-02-21T02:47:41.420Z,1011.76
2019-02-21T02:48:41.407Z,1011.82
2019-02-21T02:49:41.398Z,1011.78
2019-02-21T02:50:41.395Z,1011.75
2019-02-21T02:51:41.430Z,1011.77
2019-02-21T02:52:41.370Z,1011.76
2019-02-21T02:53:41.354Z,1011.78
2019-02-21T02:54:41.340Z,1011.72
2019-02-21T02:55:41.367Z,1011.73
2019-02-21T02:56:41.318Z,1011.79
2019-02-21T02:57:41.339Z,1011.77
2019-02-21T02:58:41.306Z,1011.73
2019-02-21T02:59:41.419Z,1011.72
2019-02-21T03:00:41.279Z,1011.71
2019-02-21T03:01:41.309Z,1011.76
2019-02-21T03:02:41.287Z,1011.79
2019-02-21T03:03:41.251Z,1011.72
2019-02-21T03:04:41.254Z,1011.73
2019-02-21T03:05:41.220Z,1011.78
2019-02-21T03:06:41.248Z,1011.78
2019-02-21T03:07:41.199Z,1011.75
2019-02-21T03:08:41.191Z,1011.72
2019-02-21T03:09:41.178Z,1011.73
2019-02-21T03:10:41.166Z,1011.75
2019-02-21T03:11:41.162Z,1011.72
2019-02-21T03:12:41.180Z,1011.79
2019-02-21T03:13:41.132Z,1011.74
2019-02-21T03:14:41.159Z,1011.76
2019-02-21T03:15:41.115Z,1011.76
2019-02-21T03:16:41.102Z,1011.79
2019-02-21T03:17:41.101Z,1011.74
2019-02-21T03:18:41.087Z,1011.75
2019-02-21T03:19:41.103Z,1011.80
2019-02-21T03:20:41.063Z,1011.80
2019-02-21T03:21:41.050Z,1011.82
2019-02-21T03:22:41.035Z,1011.84
2019-02-21T03:23:41.032Z,1011.86
2019-02-21T03:24:41.069Z,1011.87
2019-02-21T03:25:41.003Z,1011.88
2019-02-21T03:26:40.996Z,1011.90
2019-02-21T03:27:40.993Z,1011.91
2019-02-21T03:28:40.970Z,1011.85
2019-02-21T03:29:41.090Z,1011.88
2019-02-21T03:30:41.008Z,1011.86
2019-02-21T03:31:53.405Z,1011.84
2019-02-21T03:32:41.956Z,1011.84
2019-02-21T03:33:40.917Z,1011.86
2019-02-21T03:34:40.906Z,1011.90
2019-02-21T03:35:40.971Z,1011.87
2019-02-21T03:36:40.892Z,1011.93
2019-02-21T03:37:40.881Z,1011.90
2019-02-21T03:38:40.874Z,1011.93
2019-02-21T03:39:40.848Z,1011.93
2019-02-21T03:40:40.848Z,1011.90
2019-02-21T03:41:40.876Z,1011.89
2019-02-21T03:42:40.817Z,1011.88
2019-02-21T03:43:40.813Z,1011.89
2019-02-21T03:44:40.795Z,1011.89
2019-02-21T03:45:40.792Z,1011.84
2019-02-21T03:46:40.782Z,1011.89
2019-02-21T03:47:40.795Z,1011.88
2019-02-21T03:48:40.753Z,1011.93
2019-02-21T03:49:40.747Z,1011.89
2019-02-21T03:50:40.733Z,1011.84
2019-02-21T03:51:40.720Z,1011.86
2019-02-21T03:52:40.732Z,1011.85
2019-02-21T03:53:40.696Z,1011.87
2019-02-21T03:54:40.685Z,1011.88
2019-02-21T03:55:40.680Z,1011.88
2019-02-21T03:56:40.666Z,1011.88
2019-02-21T03:57:40.675Z,1011.85
2019-02-21T03:58:40.641Z,1011.88
2019-02-21T03:59:40.632Z,1011.89
2019-02-21T04:00:40.621Z,1011.84
2019-02-21T04:01:40.611Z,1011.88
2019-02-21T04:02:40.655Z,1011.93
2019-02-21T04:03:40.590Z,1011.90
2019-02-21T04:04:40.576Z,1011.92
2019-02-21T04:05:40.581Z,1011.90
2019-02-21T04:06:40.556Z,1011.87
2019-02-21T04:07:40.553Z,1011.90
2019-02-21T04:08:40.555Z,1011.85
2019-02-21T04:09:40.525Z,1011.85
2019-02-21T04:10:40.519Z,1011.88
2019-02-21T04:11:40.500Z,1011.80
2019-02-21T04:12:40.520Z,1011.79
2019-02-21T04:13:40.479Z,1011.79
2019-02-21T04:14:40.474Z,1011.74
2019-02-21T04:15:40.463Z,1011.75
2019-02-21T04:16:40.478Z,1011.76
2019-02-21T04:17:40.433Z,1011.75
2019-02-21T04:18:40.425Z,1011.73
2019-02-21T04:19:40.448Z,1011.75
2019-02-21T04:20:40.400Z,1011.73
2019-02-21T04:21:40.441Z,1011.70
2019-02-21T04:22:40.380Z,1011.69
2019-02-21T04:23:40.372Z,1011.74
2019-02-21T04:24:40.359Z,1011.79
2019-02-21T04:25:40.352Z,1011.78
2019-02-21T04:26:40.335Z,1011.79
2019-02-21T04:27:40.361Z,1011.79
2019-02-21T04:28:40.319Z,1011.76
2019-02-21T04:29:40.305Z,1011.75
2019-02-21T04:30:40.298Z,1011.75
2019-02-21T04:31:40.297Z,1011.74
2019-02-21T04:32:40.323Z,1011.74
2019-02-21T04:33:40.265Z,1011.74
2019-02-21T04:34:40.248Z,1011.70
2019-02-21T04:35:40.241Z,1011.69
2019-02-21T04:36:40.236Z,1011.68
2019-02-21T04:37:40.218Z,1011.70
2019-02-21T04:38:40.237Z,1011.70
2019-02-21T04:39:40.205Z,1011.68
2019-02-21T04:40:40.208Z,1011.73
2019-02-21T04:41:40.174Z,1011.69
2019-02-21T04:42:40.195Z,1011.68
2019-02-21T04:43:40.152Z,1011.69
2019-02-21T04:44:40.143Z,1011.67
2019-02-21T04:45:40.131Z,1011.62
2019-02-21T04:46:40.118Z,1011.68
2019-02-21T04:47:47.175Z,1011.67
2019-02-21T04:48:40.108Z,1011.62
2019-02-21T04:49:40.087Z,1011.63
2019-02-21T04:50:40.074Z,1011.65
2019-02-21T04:51:40.063Z,1011.62
2019-02-21T04:52:40.084Z,1011.58
2019-02-21T04:53:40.098Z,1011.58
2019-02-21T04:54:40.033Z,1011.56
2019-02-21T04:55:40.026Z,1011.55
2019-02-21T04:56:40.010Z,1011.56
2019-02-21T04:57:40.000Z,1011.56
2019-02-21T04:58:39.989Z,1011.62
2019-02-21T04:59:40.036Z,1011.62
2019-02-21T05:00:39.972Z,1011.62
2019-02-21T05:01:40.451Z,1011.62
2019-02-21T05:02:39.941Z,1011.62
2019-02-21T05:03:39.939Z,1011.58
2019-02-21T05:04:39.930Z,1011.60
2019-02-21T05:05:39.943Z,1011.61
2019-02-21T05:06:39.920Z,1011.60
2019-02-21T05:07:39.894Z,1011.56
2019-02-21T05:08:39.876Z,1011.57
2019-02-21T05:09:39.876Z,1011.64
2019-02-21T05:10:39.858Z,1011.64
2019-02-21T05:11:39.866Z,1011.66
2019-02-21T05:12:39.834Z,1011.65
2019-02-21T05:13:39.834Z,1011.69
2019-02-21T05:14:39.814Z,1011.68
2019-02-21T05:15:39.810Z,1011.66
2019-02-21T05:16:39.846Z,1011.67
2019-02-21T05:17:39.782Z,1011.74
2019-02-21T05:18:39.768Z,1011.68
2019-02-21T05:19:39.758Z,1011.66
2019-02-21T05:20:39.749Z,1011.72
2019-02-21T05:21:39.740Z,1011.73
2019-02-21T05:22:39.779Z,1011.69
2019-02-21T05:23:39.722Z,1011.69
2019-02-21T05:24:39.710Z,1011.65
2019-02-21T05:25:39.695Z,1011.62
2019-02-21T05:26:39.683Z,1011.59
2019-02-21T05:27:39.676Z,1011.65
2019-02-21T05:28:41.299Z,1011.63
2019-02-21T05:29:39.649Z,1011.70
2019-02-21T05:30:39.638Z,1011.61
2019-02-21T05:31:39.627Z,1011.68
2019-02-21T05:32:41.237Z,1011.67
2019-02-21T05:33:39.618Z,1011.67
2019-02-21T05:34:39.635Z,1011.67
2019-02-21T05:35:39.584Z,1011.68
2019-02-21T05:36:39.572Z,1011.68
2019-02-21T05:37:39.564Z,1011.70
2019-02-21T05:38:39.549Z,1011.66
2019-02-21T05:39:39.546Z,1011.67
2019-02-21T05:40:41.998Z,1011.65
2019-02-21T05:41:39.521Z,1011.62
2019-02-21T05:42:39.509Z,1011.67
2019-02-21T05:43:39.496Z,1011.70
2019-02-21T05:44:39.511Z,1011.68
2019-02-21T05:45:39.485Z,1011.64
2019-02-21T05:46:39.464Z,1011.62
2019-02-21T05:47:39.475Z,1011.63
2019-02-21T05:48:40.318Z,1011.64
2019-02-21T05:49:39.449Z,1011.65
2019-02-21T05:50:39.428Z,1011.65
2019-02-21T05:51:39.417Z,1011.67
2019-02-21T05:52:39.400Z,1011.66
2019-02-21T05:53:39.408Z,1011.65
2019-02-21T05:54:39.379Z,1011.64
2019-02-21T05:55:39.381Z,1011.65
2019-02-21T05:56:39.356Z,1011.70
2019-02-21T05:57:39.345Z,1011.72
2019-02-21T05:58:39.392Z,1011.74
2019-02-21T05:59:39.328Z,1011.74
2019-02-21T06:00:39.339Z,1011.72
2019-02-21T06:01:39.300Z,1011.72
2019-02-21T06:02:39.292Z,1011.73
2019-02-21T06:03:39.288Z,1011.74
2019-02-21T06:04:39.323Z,1011.77
2019-02-21T06:05:39.260Z,1011.80
2019-02-21T06:06:39.250Z,1011.84
2019-02-21T06:07:39.241Z,1011.83
2019-02-21T06:08:39.229Z,1011.89
2019-02-21T06:09:39.222Z,1011.90
2019-02-21T06:10:39.248Z,1011.89
2019-02-21T06:11:39.206Z,1011.87
2019-02-21T06:12:39.188Z,1011.91
2019-02-21T06:13:39.174Z,1011.90
2019-02-21T06:14:39.173Z,1011.91
2019-02-21T06:15:39.152Z,1011.90
2019-02-21T06:16:39.168Z,1011.92
2019-02-21T06:17:39.130Z,1011.93
2019-02-21T06:18:39.135Z,1011.96
2019-02-21T06:19:39.153Z,1011.94
2019-02-21T06:20:39.096Z,1011.97
2019-02-21T06:21:39.119Z,1011.95
2019-02-21T06:22:39.077Z,1011.97
2019-02-21T06:23:39.494Z,1011.97
2019-02-21T06:24:39.056Z,1011.99
2019-02-21T06:25:50.517Z,1012.04
2019-02-21T06:26:40.062Z,1011.96
2019-02-21T06:27:39.022Z,1011.97
2019-02-21T06:28:39.018Z,1011.98
2019-02-21T06:29:39.007Z,1012.02
2019-02-21T06:30:38.991Z,1012.01
2019-02-21T06:31:39.015Z,1011.97
2019-02-21T06:32:40.864Z,1012.00
2019-02-21T06:33:38.959Z,1011.97
2019-02-21T06:34:38.944Z,1012.00
2019-02-21T06:35:38.933Z,1012.02
2019-02-21T06:36:38.922Z,1012.00
2019-02-21T06:37:38.915Z,1012.04
2019-02-21T06:38:38.940Z,1011.98
2019-02-21T06:39:38.891Z,1012.00
2019-02-21T06:40:38.906Z,1012.02
2019-02-21T06:41:38.883Z,1012.09
2019-02-21T06:42:38.865Z,1012.05
2019-02-21T06:43:38.855Z,1012.08
2019-02-21T06:44:38.855Z,1012.09
2019-02-21T06:45:38.909Z,1012.12
2019-02-21T06:46:38.820Z,1012.09
2019-02-21T06:47:38.807Z,1012.11
2019-02-21T06:48:38.803Z,1012.16
2019-02-21T06:49:38.836Z,1012.17
2019-02-21T06:50:38.772Z,1012.12
2019-02-21T06:51:38.763Z,1012.18
2019-02-21T06:52:40.600Z,1012.17
2019-02-21T06:53:38.747Z,1012.17
2019-02-21T06:54:38.738Z,1012.20
2019-02-21T06:55:38.739Z,1012.19
2019-02-21T06:56:38.718Z,1012.18
2019-02-21T06:57:38.695Z,1012.13
2019-02-21T06:58:38.685Z,1012.13
2019-02-21T06:59:42.475Z,1012.06
2019-02-21T07:00:39.689Z,1012.12
2019-02-21T07:01:38.653Z,1012.12
2019-02-21T07:02:38.645Z,1012.11
2019-02-21T07:03:38.635Z,1012.12
2019-02-21T07:04:38.627Z,1012.16
2019-02-21T07:05:38.612Z,1012.10
2019-02-21T07:06:39.345Z,1012.12
2019-02-21T07:07:38.589Z,1012.08
2019-02-21T07:08:40.141Z,1012.15
2019-02-21T07:09:38.597Z,1012.14
2019-02-21T07:10:38.558Z,1012.19
2019-02-21T07:11:38.543Z,1012.20
2019-02-21T07:12:38.549Z,1012.22
2019-02-21T07:13:38.523Z,1012.24
2019-02-21T07:14:38.511Z,1012.29
2019-02-21T07:15:38.503Z,1012.25
2019-02-21T07:16:38.522Z,1012.29
2019-02-21T07:17:48.537Z,1012.31
2019-02-21T07:18:40.876Z,1012.33
2019-02-21T07:19:38.511Z,1012.31
2019-02-21T07:20:39.809Z,1012.32
2019-02-21T07:21:38.435Z,1012.33
2019-02-21T07:22:38.460Z,1012.27
2019-02-21T07:23:43.473Z,1012.30
2019-02-21T07:24:39.433Z,1012.27
2019-02-21T07:25:38.393Z,1012.23
2019-02-21T07:26:38.383Z,1012.24
2019-02-21T07:27:38.389Z,1012.30
2019-02-21T07:28:38.357Z,1012.32
2019-02-21T07:29:38.885Z,1012.33
2019-02-21T07:30:38.336Z,1012.36
2019-02-21T07:31:38.328Z,1012.37
2019-02-21T07:32:38.337Z,1012.35
2019-02-21T07:33:38.308Z,1012.37
2019-02-21T07:34:38.307Z,1012.42
2019-02-21T07:35:38.289Z,1012.36
2019-02-21T07:36:38.327Z,1012.40
2019-02-21T07:37:38.263Z,1012.45
2019-02-21T07:38:38.267Z,1012.48
2019-02-21T07:39:38.241Z,1012.51
2019-02-21T07:40:38.231Z,1012.53
2019-02-21T07:41:38.223Z,1012.49
2019-02-21T07:42:38.229Z,1012.50
2019-02-21T07:43:38.197Z,1012.48
2019-02-21T07:44:38.220Z,1012.50
2019-02-21T07:45:38.174Z,1012.53
2019-02-21T07:46:38.168Z,1012.46
2019-02-21T07:47:38.153Z,1012.45
2019-02-21T07:48:38.162Z,1012.51
2019-02-21T07:49:38.136Z,1012.51
2019-02-21T07:50:38.121Z,1012.54
2019-02-21T07:51:38.109Z,1012.52
2019-02-21T07:52:38.100Z,1012.54
2019-02-21T07:53:38.121Z,1012.49
2019-02-21T07:54:38.082Z,1012.55
2019-02-21T07:55:38.063Z,1012.48
2019-02-21T07:56:42.171Z,1012.48
2019-02-21T07:57:38.055Z,1012.46
2019-02-21T07:58:39.621Z,1012.55
2019-02-21T07:59:38.061Z,1012.54
2019-02-21T08:00:38.040Z,1012.58
2019-02-21T08:01:38.031Z,1012.54
2019-02-21T08:02:37.993Z,1012.53
2019-02-21T08:03:44.339Z,1012.57
2019-02-21T08:04:38.972Z,1012.59
2019-02-21T08:05:37.959Z,1012.59
2019-02-21T08:06:37.971Z,1012.52
2019-02-21T08:07:37.945Z,1012.56
2019-02-21T08:08:37.920Z,1012.61
2019-02-21T08:09:37.964Z,1012.57
2019-02-21T08:10:37.906Z,1012.59
2019-02-21T08:11:37.890Z,1012.62
2019-02-21T08:12:40.454Z,1012.60
2019-02-21T08:13:37.868Z,1012.65
2019-02-21T08:14:37.857Z,1012.67
2019-02-21T08:15:37.936Z,1012.65
2019-02-21T08:16:37.968Z,1012.59
2019-02-21T08:17:37.824Z,1012.50
2019-02-21T08:18:37.818Z,1012.57
2019-02-21T08:19:37.806Z,1012.57
2019-02-21T08:20:40.880Z,1012.61
2019-02-21T08:21:37.872Z,1012.59
2019-02-21T08:22:37.800Z,1012.58
2019-02-21T08:23:37.759Z,1012.54
2019-02-21T08:24:37.746Z,1012.59
2019-02-21T08:25:37.734Z,1012.64
2019-02-21T08:26:37.723Z,1012.62
2019-02-21T08:27:37.837Z,1012.66
2019-02-21T08:28:37.705Z,1012.57
2019-02-21T08:29:37.690Z,1012.60
2019-02-21T08:30:37.678Z,1012.58
2019-02-21T08:31:37.673Z,1012.56
2019-02-21T08:32:37.659Z,1012.58
2019-02-21T08:33:37.709Z,1012.51
2019-02-21T08:34:37.641Z,1012.48
2019-02-21T08:35:37.630Z,1012.56
2019-02-21T08:36:37.614Z,1012.62
2019-02-21T08:37:37.601Z,1012.64
2019-02-21T08:38:37.598Z,1012.64
2019-02-21T08:39:37.614Z,1012.61
2019-02-21T08:40:37.576Z,1012.63
2019-02-21T08:41:37.608Z,1012.62
2019-02-21T08:42:37.547Z,1012.68
2019-02-21T08:43:37.541Z,1012.62
2019-02-21T08:44:37.531Z,1012.65
2019-02-21T08:45:37.607Z,1012.66
2019-02-21T08:46:37.511Z,1012.65
2019-02-21T08:47:37.552Z,1012.71
2019-02-21T08:48:40.290Z,1012.69
2019-02-21T08:49:37.477Z,1012.68
2019-02-21T08:50:37.463Z,1012.65
2019-02-21T08:51:37.449Z,1012.69
2019-02-21T08:52:37.436Z,1012.73
2019-02-21T08:53:37.456Z,1012.72
2019-02-21T08:54:37.421Z,1012.78
2019-02-21T08:55:37.507Z,1012.74
2019-02-21T08:56:37.402Z,1012.78
2019-02-21T08:57:37.380Z,1012.76
2019-02-21T08:58:37.369Z,1012.80
2019-02-21T08:59:37.364Z,1012.72
2019-02-21T09:00:37.348Z,1012.74
2019-02-21T09:01:37.360Z,1012.75
2019-02-21T09:02:37.326Z,1012.79
2019-02-21T09:03:37.340Z,1012.70
2019-02-21T09:04:37.314Z,1012.71
2019-02-21T09:05:37.294Z,1012.72
2019-02-21T09:06:37.317Z,1012.73
2019-02-21T09:07:37.274Z,1012.75
2019-02-21T09:08:37.381Z,1012.72
2019-02-21T09:09:37.251Z,1012.77
2019-02-21T09:10:37.239Z,1012.74
2019-02-21T09:11:37.230Z,1012.75
2019-02-21T09:12:37.236Z,1012.81
2019-02-21T09:13:37.238Z,1012.87
2019-02-21T09:14:37.199Z,1012.89
2019-02-21T09:15:37.204Z,1012.93
2019-02-21T09:16:37.180Z,1012.95
2019-02-21T09:17:37.161Z,1012.96
2019-02-21T09:18:37.184Z,1012.94
2019-02-21T09:19:37.149Z,1012.92
2019-02-21T09:20:37.131Z,1012.90
2019-02-21T09:21:37.121Z,1013.09
2019-02-21T09:22:37.120Z,1012.99
2019-02-21T09:23:37.118Z,1013.06
2019-02-21T09:24:40.150Z,1012.95
2019-02-21T09:25:38.106Z,1013.00
2019-02-21T09:26:37.064Z,1012.92
2019-02-21T09:27:37.085Z,1012.85
2019-02-21T09:28:37.042Z,1012.90
2019-02-21T09:29:37.028Z,1012.91
2019-02-21T09:30:37.018Z,1012.83
2019-02-21T09:31:37.034Z,1012.85
2019-02-21T09:32:36.997Z,1012.90
2019-02-21T09:33:37.359Z,1012.91
2019-02-21T09:34:37.013Z,1012.90
2019-02-21T09:35:36.964Z,1012.90
2019-02-21T09:36:36.951Z,1012.96
2019-02-21T09:37:36.959Z,1012.91
2019-02-21T09:38:36.934Z,1012.97
2019-02-21T09:39:36.975Z,1012.96
2019-02-21T09:40:36.912Z,1012.97
2019-02-21T09:41:36.900Z,1013.02
2019-02-21T09:42:36.895Z,1013.01
2019-02-21T09:43:36.874Z,1013.07
2019-02-21T09:44:36.870Z,1013.05
2019-02-21T09:45:36.886Z,1013.03
2019-02-21T09:46:36.846Z,1013.08
2019-02-21T09:47:36.839Z,1013.02
2019-02-21T09:48:36.821Z,1013.09
2019-02-21T09:49:36.881Z,1013.13
2019-02-21T09:50:36.800Z,1013.05
2019-02-21T09:51:36.812Z,1013.10
2019-02-21T09:52:36.777Z,1013.08
2019-02-21T09:53:36.765Z,1013.10
2019-02-21T09:54:36.756Z,1013.19
2019-02-21T09:55:36.750Z,1013.15
2019-02-21T09:56:36.767Z,1013.14
2019-02-21T09:57:36.720Z,1013.14
2019-02-21T09:58:36.710Z,1013.15
2019-02-21T09:59:36.756Z,1013.14
2019-02-21T10:00:36.688Z,1013.14
2019-02-21T10:01:36.707Z,1013.20
2019-02-21T10:02:36.673Z,1013.21
2019-02-21T10:03:36.680Z,1013.12
2019-02-21T10:04:36.644Z,1013.11
2019-02-21T10:05:36.636Z,1013.14
2019-02-21T10:06:36.625Z,1013.09
2019-02-21T10:07:37.240Z,1013.06
2019-02-21T10:08:36.616Z,1013.08
2019-02-21T10:09:36.590Z,1013.07
2019-02-21T10:10:36.595Z,1013.04
2019-02-21T10:11:36.576Z,1013.02
2019-02-21T10:12:36.591Z,1013.06
2019-02-21T10:13:36.580Z,1013.07
2019-02-21T10:14:36.543Z,1013.08
2019-02-21T10:15:36.527Z,1013.05
2019-02-21T10:16:36.517Z,1013.09
2019-02-21T10:17:36.539Z,1013.01
2019-02-21T10:18:36.492Z,1013.03
2019-02-21T10:19:36.491Z,1013.03
2019-02-21T10:20:36.470Z,1013.04
2019-02-21T10:21:36.468Z,1013.02
2019-02-21T10:22:36.479Z,1013.05
2019-02-21T10:23:36.440Z,1013.05
2019-02-21T10:24:36.432Z,1013.00
2019-02-21T10:25:36.413Z,1013.05
2019-02-21T10:26:36.404Z,1012.97
2019-02-21T10:27:36.393Z,1012.98
2019-02-21T10:28:36.407Z,1013.00
2019-02-21T10:29:36.374Z,1012.98
2019-02-21T10:30:36.551Z,1012.95
2019-02-21T10:31:36.351Z,1012.84
2019-02-21T10:32:36.341Z,1012.91
2019-02-21T10:33:46.238Z,1012.96
2019-02-21T10:34:42.977Z,1013.00
2019-02-21T10:35:37.307Z,1012.96
2019-02-21T10:36:36.303Z,1012.96
2019-02-21T10:37:36.283Z,1012.98
2019-02-21T10:38:36.307Z,1012.96
2019-02-21T10:39:36.296Z,1012.99
2019-02-21T10:40:36.261Z,1013.00
2019-02-21T10:41:36.248Z,1012.98
2019-02-21T10:42:36.233Z,1012.96
2019-02-21T10:43:36.221Z,1012.99
2019-02-21T10:44:36.207Z,1013.04
2019-02-21T10:45:47.081Z,1013.05
2019-02-21T10:46:37.186Z,1012.99
2019-02-21T10:47:36.207Z,1013.04
2019-02-21T10:48:43.246Z,1013.01
2019-02-21T10:49:36.152Z,1013.01
2019-02-21T10:50:36.167Z,1012.96
2019-02-21T10:51:36.133Z,1012.99
2019-02-21T10:52:36.153Z,1012.89
2019-02-21T10:53:36.110Z,1012.95
2019-02-21T10:54:36.138Z,1012.94
2019-02-21T10:55:36.095Z,1012.96
2019-02-21T10:56:36.082Z,1013.02
2019-02-21T10:57:36.073Z,1013.04
2019-02-21T10:58:36.056Z,1013.00
2019-02-21T10:59:46.332Z,1012.93
2019-02-21T11:00:37.039Z,1012.91
2019-02-21T11:01:36.022Z,1012.92
2019-02-21T11:02:36.018Z,1012.95
2019-02-21T11:03:36.033Z,1012.91
2019-02-21T11:04:35.989Z,1013.08
2019-02-21T11:05:35.981Z,1012.92
2019-02-21T11:06:35.967Z,1012.87
2019-02-21T11:07:35.970Z,1012.88
2019-02-21T11:08:35.953Z,1012.88
2019-02-21T11:09:35.955Z,1012.85
2019-02-21T11:10:35.927Z,1012.84
2019-02-21T11:11:35.920Z,1012.83
2019-02-21T11:12:35.901Z,1012.83
2019-02-21T11:13:35.895Z,1012.81
2019-02-21T11:14:47.043Z,1012.81
2019-02-21T11:15:36.864Z,1012.82
2019-02-21T11:16:35.858Z,1012.83
2019-02-21T11:17:35.847Z,1012.78
2019-02-21T11:18:35.844Z,1012.74
2019-02-21T11:19:35.823Z,1012.80
2019-02-21T11:20:35.863Z,1012.72
2019-02-21T11:21:35.802Z,1012.74
2019-02-21T11:22:35.794Z,1012.76
2019-02-21T11:23:35.781Z,1012.75
2019-02-21T11:24:35.776Z,1012.74
2019-02-21T11:25:35.758Z,1012.78
2019-02-21T11:26:35.780Z,1012.77
2019-02-21T11:27:35.746Z,1012.78
2019-02-21T11:28:35.728Z,1012.75
2019-02-21T11:29:35.719Z,1012.89
2019-02-21T11:30:35.709Z,1012.68
2019-02-21T11:31:35.722Z,1012.69
2019-02-21T11:32:35.688Z,1012.79
2019-02-21T11:33:35.669Z,1012.66
2019-02-21T11:34:38.033Z,1012.65
2019-02-21T11:35:35.680Z,1012.66
2019-02-21T11:36:35.659Z,1012.65
2019-02-21T11:37:43.262Z,1012.62
2019-02-21T11:38:36.611Z,1012.59
2019-02-21T11:39:35.604Z,1012.60
2019-02-21T11:40:35.598Z,1012.66
2019-02-21T11:41:35.586Z,1012.60
2019-02-21T11:42:35.627Z,1012.56
2019-02-21T11:43:35.563Z,1012.62
2019-02-21T11:44:35.546Z,1012.58
2019-02-21T11:45:35.536Z,1012.61
2019-02-21T11:46:35.535Z,1012.55
2019-02-21T11:47:35.521Z,1012.55
2019-02-21T11:48:35.539Z,1012.57
2019-02-21T11:49:35.505Z,1012.58
2019-02-21T11:50:35.488Z,1012.59
2019-02-21T11:51:35.478Z,1012.59
2019-02-21T11:52:35.458Z,1012.58
2019-02-21T11:53:38.012Z,1012.54
2019-02-21T11:54:35.468Z,1012.52
2019-02-21T11:55:35.426Z,1012.50
2019-02-21T11:56:35.421Z,1012.48
2019-02-21T11:57:35.404Z,1012.49
2019-02-21T11:58:35.392Z,1012.55
2019-02-21T11:59:35.426Z,1012.46
2019-02-21T12:00:35.369Z,1012.52
2019-02-21T12:01:35.362Z,1012.53
2019-02-21T12:02:38.796Z,1012.55
2019-02-21T12:03:35.369Z,1012.49
2019-02-21T12:04:35.359Z,1012.50
2019-02-21T12:05:35.321Z,1012.52